sensor_id;sensor_type;location;lat;lon;timestamp;pressure;altitude;pressure_sealevel;temperature;humidity
62976;BME280;49071;0.000;0.000;2022-09-09T04:53:24;100502.63;;;22.03;46.69
62976;BME280;49071;0.000;0.000;2022-09-09T04:56:25;100496.25;;;22.02;46.66
62976;BME280;49071;0.000;0.000;2022-09-09T04:59:26;100500.34;;;22.01;46.35
62976;BME280;49071;0.000;0.000;2022-09-09T05:02:27;100502.63;;;22.03;46.46
62976;BME280;49071;0.000;0.000;2022-09-09T05:05:27;100507.00;;;22.04;46.40
62976;BME280;49071;0.000;0.000;2022-09-09T05:08:28;100505.72;;;22.05;46.42
62976;BME280;49071;0.000;0.000;2022-09-09T05:11:29;100512.41;;;22.07;46.47
62976;BME280;49071;0.000;0.000;2022-09-09T05:14:30;100509.59;;;22.07;46.33
62976;BME280;49071;0.000;0.000;2022-09-09T05:17:30;100511.13;;;22.08;46.22
62976;BME280;49071;0.000;0.000;2022-09-09T05:20:30;100505.50;;;22.08;46.17
62976;BME280;49071;0.000;0.000;2022-09-09T05:23:32;100518.59;;;22.11;46.29
62976;BME280;49071;0.000;0.000;2022-09-09T05:26:33;100515.25;;;22.13;46.00
62976;BME280;49071;0.000;0.000;2022-09-09T05:29:34;100513.25;;;22.13;46.19
62976;BME280;49071;0.000;0.000;2022-09-09T05:32:34;100515.53;;;22.15;45.97
62976;BME280;49071;0.000;0.000;2022-09-09T05:35:34;100517.88;;;22.16;46.05
62976;BME280;49071;0.000;0.000;2022-09-09T05:38:34;100523.78;;;22.19;46.08
62976;BME280;49071;0.000;0.000;2022-09-09T05:41:35;100522.03;;;22.21;46.20
62976;BME280;49071;0.000;0.000;2022-09-09T05:44:36;100523.56;;;22.22;45.94
62976;BME280;49071;0.000;0.000;2022-09-09T05:47:37;100529.47;;;22.24;46.51
62976;BME280;49071;0.000;0.000;2022-09-09T05:50:37;100526.03;;;22.14;46.72
62976;BME280;49071;0.000;0.000;2022-09-09T05:53:37;100518.06;;;21.87;47.99
62976;BME280;49071;0.000;0.000;2022-09-09T05:56:38;100524.94;;;21.86;47.97
62976;BME280;49071;0.000;0.000;2022-09-09T05:59:39;100525.78;;;21.92;48.35
62976;BME280;49071;0.000;0.000;2022-09-09T06:02:39;100535.19;;;21.89;48.07
62976;BME280;49071;0.000;0.000;2022-09-09T06:05:41;100535.63;;;22.02;47.53
62976;BME280;49071;0.000;0.000;2022-09-09T06:08:41;100530.88;;;22.14;47.29
62976;BME280;49071;0.000;0.000;2022-09-09T06:11:44;100530.59;;;22.12;47.82
62976;BME280;49071;0.000;0.000;2022-09-09T06:14:44;100534.63;;;22.05;47.96
62976;BME280;49071;0.000;0.000;2022-09-09T06:17:45;100536.72;;;22.10;47.87
62976;BME280;49071;0.000;0.000;2022-09-09T06:21:04;100536.19;;;22.06;47.95
62976;BME280;49071;0.000;0.000;2022-09-09T06:24:05;100526.75;;;22.09;48.15
62976;BME280;49071;0.000;0.000;2022-09-09T06:27:05;100528.22;;;22.05;48.62
62976;BME280;49071;0.000;0.000;2022-09-09T06:30:05;100522.13;;;22.06;48.61
62976;BME280;49071;0.000;0.000;2022-09-09T06:33:06;100528.75;;;21.83;49.70
62976;BME280;49071;0.000;0.000;2022-09-09T06:36:28;100525.50;;;21.90;49.23
62976;BME280;49071;0.000;0.000;2022-09-09T06:39:27;100531.38;;;22.12;48.45
62976;BME280;49071;0.000;0.000;2022-09-09T06:42:27;100532.00;;;22.22;48.00
62976;BME280;49071;0.000;0.000;2022-09-09T06:45:27;100539.81;;;22.33;47.82
62976;BME280;49071;0.000;0.000;2022-09-09T06:48:28;100553.16;;;22.38;47.38
62976;BME280;49071;0.000;0.000;2022-09-09T06:51:30;100543.72;;;22.41;47.38
62976;BME280;49071;0.000;0.000;2022-09-09T06:54:30;100551.94;;;22.45;47.38
62976;BME280;49071;0.000;0.000;2022-09-09T06:57:30;100545.81;;;22.46;47.30
62976;BME280;49071;0.000;0.000;2022-09-09T07:00:31;100549.91;;;22.45;46.98
62976;BME280;49071;0.000;0.000;2022-09-09T07:03:32;100546.09;;;22.48;46.88
62976;BME280;49071;0.000;0.000;2022-09-09T07:06:35;100552.28;;;22.52;47.05
62976;BME280;49071;0.000;0.000;2022-09-09T07:09:35;100553.53;;;22.51;46.75
62976;BME280;49071;0.000;0.000;2022-09-09T07:12:35;100563.03;;;22.54;46.85
62976;BME280;49071;0.000;0.000;2022-09-09T07:15:35;100554.56;;;22.54;46.47
62976;BME280;49071;0.000;0.000;2022-09-09T07:18:36;100554.09;;;22.55;46.79
62976;BME280;49071;0.000;0.000;2022-09-09T07:21:36;100553.09;;;22.58;46.80
62976;BME280;49071;0.000;0.000;2022-09-09T07:24:36;100556.47;;;22.63;46.77
62976;BME280;49071;0.000;0.000;2022-09-09T07:27:37;100556.75;;;22.65;46.67
62976;BME280;49071;0.000;0.000;2022-09-09T07:30:37;100551.38;;;22.67;46.52
62976;BME280;49071;0.000;0.000;2022-09-09T07:33:37;100555.47;;;22.66;46.67
62976;BME280;49071;0.000;0.000;2022-09-09T07:36:38;100564.66;;;22.66;46.58
62976;BME280;49071;0.000;0.000;2022-09-09T07:39:39;100565.47;;;22.67;46.58
62976;BME280;49071;0.000;0.000;2022-09-09T07:42:39;100562.38;;;22.65;46.71
62976;BME280;49071;0.000;0.000;2022-09-09T07:45:39;100563.91;;;22.66;46.55
62976;BME280;49071;0.000;0.000;2022-09-09T07:48:45;100564.66;;;22.66;46.73
62976;BME280;49071;0.000;0.000;2022-09-09T07:51:46;100570.56;;;22.68;46.65
62976;BME280;49071;0.000;0.000;2022-09-09T07:54:48;100566.00;;;22.71;46.65
62976;BME280;49071;0.000;0.000;2022-09-09T07:57:48;100561.91;;;22.72;46.33
62976;BME280;49071;0.000;0.000;2022-09-09T08:00:48;100569.09;;;22.73;46.16
62976;BME280;49071;0.000;0.000;2022-09-09T08:04:08;100573.19;;;22.72;46.38
62976;BME280;49071;0.000;0.000;2022-09-09T08:07:08;100569.84;;;22.73;46.43
62976;BME280;49071;0.000;0.000;2022-09-09T08:10:09;100572.66;;;22.73;46.39
62976;BME280;49071;0.000;0.000;2022-09-09T08:13:09;100574.72;;;22.73;46.56
62976;BME280;49071;0.000;0.000;2022-09-09T08:16:14;100571.13;;;22.72;46.68
62976;BME280;49071;0.000;0.000;2022-09-09T08:19:15;100585.97;;;22.73;46.68
62976;BME280;49071;0.000;0.000;2022-09-09T08:22:15;100588.78;;;22.73;46.46
62976;BME280;49071;0.000;0.000;2022-09-09T08:25:15;100582.69;;;22.74;46.59
62976;BME280;49071;0.000;0.000;2022-09-09T08:28:16;100582.41;;;22.72;46.70
62976;BME280;49071;0.000;0.000;2022-09-09T08:31:16;100588.78;;;22.73;46.41
62976;BME280;49071;0.000;0.000;2022-09-09T08:34:17;100582.88;;;22.71;46.34
62976;BME280;49071;0.000;0.000;2022-09-09T08:37:19;100588.50;;;22.71;46.51
62976;BME280;49071;0.000;0.000;2022-09-09T08:40:22;100588.22;;;22.69;46.46
62976;BME280;49071;0.000;0.000;2022-09-09T08:43:27;100587.19;;;22.66;46.87
62976;BME280;49071;0.000;0.000;2022-09-09T08:46:41;100591.28;;;22.65;46.67
62976;BME280;49071;0.000;0.000;2022-09-09T08:53:05;100595.88;;;22.63;46.74
62976;BME280;49071;0.000;0.000;2022-09-09T08:56:12;100599.44;;;22.63;46.94
62976;BME280;49071;0.000;0.000;2022-09-09T08:59:14;100599.97;;;22.62;47.11
62976;BME280;49071;0.000;0.000;2022-09-09T09:02:17;100602.78;;;22.62;46.70
62976;BME280;49071;0.000;0.000;2022-09-09T09:08:30;100597.34;;;22.58;46.75
62976;BME280;49071;0.000;0.000;2022-09-09T09:11:39;100595.03;;;22.56;46.98
62976;BME280;49071;0.000;0.000;2022-09-09T09:14:40;100587.09;;;22.55;47.21
62976;BME280;49071;0.000;0.000;2022-09-09T09:17:41;100589.16;;;22.54;46.92
62976;BME280;49071;0.000;0.000;2022-09-09T09:20:47;100598.34;;;22.55;47.43
62976;BME280;49071;0.000;0.000;2022-09-09T09:23:55;100603.47;;;22.56;46.97
62976;BME280;49071;0.000;0.000;2022-09-09T09:26:56;100600.66;;;22.56;47.23
62976;BME280;49071;0.000;0.000;2022-09-09T09:29:56;100593.78;;;22.57;47.23
62976;BME280;49071;0.000;0.000;2022-09-09T09:32:59;100594.06;;;22.60;47.26
62976;BME280;49071;0.000;0.000;2022-09-09T09:36:02;100591.53;;;22.62;47.07
62976;BME280;49071;0.000;0.000;2022-09-09T09:39:03;100590.25;;;22.63;47.37
62976;BME280;49071;0.000;0.000;2022-09-09T09:42:23;100595.59;;;22.61;47.38
62976;BME280;49071;0.000;0.000;2022-09-09T09:45:28;100599.97;;;22.62;47.48
62976;BME280;49071;0.000;0.000;2022-09-09T09:48:29;100591.78;;;22.64;47.43
62976;BME280;49071;0.000;0.000;2022-09-09T09:51:30;100597.69;;;22.66;46.99
62976;BME280;49071;0.000;0.000;2022-09-09T09:54:41;100592.06;;;22.66;47.01
62976;BME280;49071;0.000;0.000;2022-09-09T09:57:42;100595.63;;;22.66;47.29
62976;BME280;49071;0.000;0.000;2022-09-09T10:00:49;100594.38;;;22.67;47.35
62976;BME280;49071;0.000;0.000;2022-09-09T10:03:50;100582.59;;;22.69;47.22
62976;BME280;49071;0.000;0.000;2022-09-09T10:06:51;100583.88;;;22.68;47.24
62976;BME280;49071;0.000;0.000;2022-09-09T10:09:55;100587.72;;;22.65;47.01
62976;BME280;49071;0.000;0.000;2022-09-09T10:16:02;100593.06;;;22.63;47.37
62976;BME280;49071;0.000;0.000;2022-09-09T10:19:10;100590.00;;;22.66;47.03
62976;BME280;49071;0.000;0.000;2022-09-09T10:28:19;100590.25;;;22.63;47.15
62976;BME280;49071;0.000;0.000;2022-09-09T10:34:52;100596.06;;;22.59;47.34
62976;BME280;49071;0.000;0.000;2022-09-09T10:44:30;100589.53;;;22.68;47.35
62976;BME280;49071;0.000;0.000;2022-09-09T10:47:53;100596.47;;;22.72;47.55
62976;BME280;49071;0.000;0.000;2022-09-09T10:54:05;100592.66;;;22.75;47.43
62976;BME280;49071;0.000;0.000;2022-09-09T10:57:22;100594.97;;;22.77;47.42
62976;BME280;49071;0.000;0.000;2022-09-09T11:03:26;100590.88;;;22.78;47.26
62976;BME280;49071;0.000;0.000;2022-09-09T11:06:31;100597.81;;;22.77;47.18
62976;BME280;49071;0.000;0.000;2022-09-09T11:09:38;100598.56;;;22.77;47.30
62976;BME280;49071;0.000;0.000;2022-09-09T11:12:41;100597.31;;;22.78;47.08
62976;BME280;49071;0.000;0.000;2022-09-09T11:15:45;100587.78;;;22.76;47.23
62976;BME280;49071;0.000;0.000;2022-09-09T11:18:46;100594.97;;;22.77;47.42
62976;BME280;49071;0.000;0.000;2022-09-09T11:21:48;100592.94;;;22.77;47.19
62976;BME280;49071;0.000;0.000;2022-09-09T11:27:54;100594.69;;;22.75;47.63
62976;BME280;49071;0.000;0.000;2022-09-09T11:31:13;100592.16;;;22.77;47.49
62976;BME280;49071;0.000;0.000;2022-09-09T11:34:31;100583.72;;;22.77;47.24
62976;BME280;49071;0.000;0.000;2022-09-09T11:40:38;100582.16;;;22.76;47.40
62976;BME280;49071;0.000;0.000;2022-09-09T11:46:42;100583.72;;;22.77;47.62
62976;BME280;49071;0.000;0.000;2022-09-09T11:49:45;100579.34;;;22.76;47.30
62976;BME280;49071;0.000;0.000;2022-09-09T11:52:46;100571.16;;;22.78;47.30
62976;BME280;49071;0.000;0.000;2022-09-09T11:55:47;100571.16;;;22.78;47.36
62976;BME280;49071;0.000;0.000;2022-09-09T11:59:04;100570.41;;;22.77;47.19
62976;BME280;49071;0.000;0.000;2022-09-09T12:02:16;100567.31;;;22.75;47.54
62976;BME280;49071;0.000;0.000;2022-09-09T12:05:18;100568.59;;;22.74;47.51
62976;BME280;49071;0.000;0.000;2022-09-09T12:08:23;100571.41;;;22.74;47.36
62976;BME280;49071;0.000;0.000;2022-09-09T12:11:28;100563.44;;;22.73;47.25
62976;BME280;49071;0.000;0.000;2022-09-09T12:14:36;100568.31;;;22.72;47.38
62976;BME280;49071;0.000;0.000;2022-09-09T12:17:44;100564.75;;;22.72;47.27
62976;BME280;49071;0.000;0.000;2022-09-09T12:24:11;100558.06;;;22.69;47.24
62976;BME280;49071;0.000;0.000;2022-09-09T12:27:24;100558.06;;;22.69;47.47
62976;BME280;49071;0.000;0.000;2022-09-09T12:33:50;100562.91;;;22.69;47.37
62976;BME280;49071;0.000;0.000;2022-09-09T12:36:54;100557.78;;;22.67;47.19
62976;BME280;49071;0.000;0.000;2022-09-09T12:39:58;100559.84;;;22.67;47.40
62976;BME280;49071;0.000;0.000;2022-09-09T12:42:59;100547.00;;;22.66;47.47
62976;BME280;49071;0.000;0.000;2022-09-09T12:46:02;100552.63;;;22.66;47.42
62976;BME280;49071;0.000;0.000;2022-09-09T12:49:03;100546.25;;;22.65;47.18
62976;BME280;49071;0.000;0.000;2022-09-09T12:52:08;100545.25;;;22.68;47.31
62976;BME280;49071;0.000;0.000;2022-09-09T12:55:21;100554.72;;;22.71;47.22
62976;BME280;49071;0.000;0.000;2022-09-09T12:58:21;100548.13;;;22.74;47.44
62976;BME280;49071;0.000;0.000;2022-09-09T13:01:23;100548.13;;;22.74;47.22
62976;BME280;49071;0.000;0.000;2022-09-09T13:04:24;100542.97;;;22.72;47.53
62976;BME280;49071;0.000;0.000;2022-09-09T13:07:24;100540.94;;;22.73;47.39
62976;BME280;49071;0.000;0.000;2022-09-09T13:10:26;100538.13;;;22.73;47.50
62976;BME280;49071;0.000;0.000;2022-09-09T13:13:29;100539.69;;;22.74;47.60
62976;BME280;49071;0.000;0.000;2022-09-09T13:16:33;100527.13;;;22.75;47.46
62976;BME280;49071;0.000;0.000;2022-09-09T13:19:37;100522.25;;;22.75;47.45
62976;BME280;49071;0.000;0.000;2022-09-09T13:22:38;100511.00;;;22.75;47.46
62976;BME280;49071;0.000;0.000;2022-09-09T13:25:40;100514.84;;;22.78;47.37
62976;BME280;49071;0.000;0.000;2022-09-09T13:28:41;100516.41;;;22.79;47.43
62976;BME280;49071;0.000;0.000;2022-09-09T13:31:41;100505.16;;;22.79;47.56
62976;BME280;49071;0.000;0.000;2022-09-09T13:34:50;100506.69;;;22.80;47.78
62976;BME280;49071;0.000;0.000;2022-09-09T13:37:50;100511.56;;;22.79;47.66
62976;BME280;49071;0.000;0.000;2022-09-09T13:40:51;100505.91;;;22.79;47.84
62976;BME280;49071;0.000;0.000;2022-09-09T13:43:52;100510.78;;;22.79;47.97
62976;BME280;49071;0.000;0.000;2022-09-09T13:47:06;100510.03;;;22.78;47.76
62976;BME280;49071;0.000;0.000;2022-09-09T13:53:23;100511.56;;;22.79;47.97
62976;BME280;49071;0.000;0.000;2022-09-09T13:56:23;100511.56;;;22.79;47.99
62976;BME280;49071;0.000;0.000;2022-09-09T13:59:24;100504.38;;;22.78;47.94
62976;BME280;49071;0.000;0.000;2022-09-09T14:02:24;100495.44;;;22.80;48.14
62976;BME280;49071;0.000;0.000;2022-09-09T14:05:25;100501.06;;;22.80;47.87
62976;BME280;49071;0.000;0.000;2022-09-09T14:08:26;100500.78;;;22.78;47.99
62976;BME280;49071;0.000;0.000;2022-09-09T14:11:26;100503.59;;;22.78;47.67
62976;BME280;49071;0.000;0.000;2022-09-09T14:14:26;100493.63;;;22.77;47.96
62976;BME280;49071;0.000;0.000;2022-09-09T14:17:27;100501.28;;;22.76;47.99
62976;BME280;49071;0.000;0.000;2022-09-09T14:20:29;100502.56;;;22.75;48.22
62976;BME280;49071;0.000;0.000;2022-09-09T14:23:30;100497.69;;;22.76;48.15
62976;BME280;49071;0.000;0.000;2022-09-09T14:26:30;100506.94;;;22.76;47.67
62976;BME280;49071;0.000;0.000;2022-09-09T14:29:30;100514.59;;;22.76;48.13
62976;BME280;49071;0.000;0.000;2022-09-09T14:32:31;100506.13;;;22.76;47.87
62976;BME280;49071;0.000;0.000;2022-09-09T14:35:31;100506.66;;;22.74;47.97
62976;BME280;49071;0.000;0.000;2022-09-09T14:38:33;100504.59;;;22.75;48.19
62976;BME280;49071;0.000;0.000;2022-09-09T14:41:35;100511.00;;;22.75;48.08
62976;BME280;49071;0.000;0.000;2022-09-09T14:44:35;100514.84;;;22.78;48.15
62976;BME280;49071;0.000;0.000;2022-09-09T14:47:35;100511.78;;;22.76;48.09
62976;BME280;49071;0.000;0.000;2022-09-09T14:50:38;100511.78;;;22.76;47.76
62976;BME280;49071;0.000;0.000;2022-09-09T14:53:42;100503.84;;;22.74;47.97
62976;BME280;49071;0.000;0.000;2022-09-09T14:56:42;100513.06;;;22.75;48.09
62976;BME280;49071;0.000;0.000;2022-09-09T14:59:42;100506.66;;;22.74;48.28
62976;BME280;49071;0.000;0.000;2022-09-09T15:02:43;100507.41;;;22.75;47.79
62976;BME280;49071;0.000;0.000;2022-09-09T15:05:43;100506.94;;;22.76;47.94
62976;BME280;49071;0.000;0.000;2022-09-09T15:08:43;100502.81;;;22.77;48.14
62976;BME280;49071;0.000;0.000;2022-09-09T15:11:44;100495.66;;;22.76;47.96
62976;BME280;49071;0.000;0.000;2022-09-09T15:14:45;100477.00;;;22.79;48.18
62976;BME280;49071;0.000;0.000;2022-09-09T15:17:45;100482.63;;;22.79;48.19
62976;BME280;49071;0.000;0.000;2022-09-09T15:20:46;100486.22;;;22.79;48.23
62976;BME280;49071;0.000;0.000;2022-09-09T15:23:47;100482.91;;;22.81;48.16
62976;BME280;49071;0.000;0.000;2022-09-09T15:26:48;100483.94;;;22.84;48.59
62976;BME280;49071;0.000;0.000;2022-09-09T15:29:48;100481.13;;;22.84;48.12
62976;BME280;49071;0.000;0.000;2022-09-09T15:32:48;100483.16;;;22.83;48.08
62976;BME280;49071;0.000;0.000;2022-09-09T15:35:49;100476.75;;;22.83;48.28
62976;BME280;49071;0.000;0.000;2022-09-09T15:38:50;100479.06;;;22.84;48.13
62976;BME280;49071;0.000;0.000;2022-09-09T15:41:50;100470.63;;;22.84;48.17
62976;BME280;49071;0.000;0.000;2022-09-09T15:44:51;100456.81;;;22.86;48.16
62976;BME280;49071;0.000;0.000;2022-09-09T15:47:51;100458.63;;;22.89;48.46
62976;BME280;49071;0.000;0.000;2022-09-09T15:51:00;100469.13;;;22.89;48.66
62976;BME280;49071;0.000;0.000;2022-09-09T15:54:02;100473.19;;;22.88;48.57
62976;BME280;49071;0.000;0.000;2022-09-09T15:57:03;100472.22;;;22.91;48.57
62976;BME280;49071;0.000;0.000;2022-09-09T16:00:04;100480.38;;;22.89;48.49
62976;BME280;49071;0.000;0.000;2022-09-09T16:03:04;100491.13;;;22.90;48.37
62976;BME280;49071;0.000;0.000;2022-09-09T16:06:05;100498.53;;;22.88;48.54
62976;BME280;49071;0.000;0.000;2022-09-09T16:09:06;100505.75;;;22.89;48.44
62976;BME280;49071;0.000;0.000;2022-09-09T16:12:06;100506.50;;;22.89;48.13
62976;BME280;49071;0.000;0.000;2022-09-09T16:15:07;100502.16;;;22.88;48.35
62976;BME280;49071;0.000;0.000;2022-09-09T16:18:08;100503.91;;;22.86;48.41
62976;BME280;49071;0.000;0.000;2022-09-09T16:21:08;100511.59;;;22.85;48.15
62976;BME280;49071;0.000;0.000;2022-09-09T16:24:14;100514.69;;;22.87;48.38
62976;BME280;49071;0.000;0.000;2022-09-09T16:27:15;100510.59;;;22.88;48.02
62976;BME280;49071;0.000;0.000;2022-09-09T16:30:15;100514.41;;;22.85;48.28
62976;BME280;49071;0.000;0.000;2022-09-09T16:33:16;100514.41;;;22.85;47.91
62976;BME280;49071;0.000;0.000;2022-09-09T16:36:17;100518.78;;;22.86;48.21
62976;BME280;49071;0.000;0.000;2022-09-09T16:39:18;100523.63;;;22.86;48.36
62976;BME280;49071;0.000;0.000;2022-09-09T16:42:19;100525.94;;;22.87;48.33
62976;BME280;49071;0.000;0.000;2022-09-09T16:45:19;100528.00;;;22.87;48.22
62976;BME280;49071;0.000;0.000;2022-09-09T16:48:19;100537.69;;;22.86;48.01
62976;BME280;49071;0.000;0.000;2022-09-09T16:51:21;100548.19;;;22.85;48.39
62976;BME280;49071;0.000;0.000;2022-09-09T16:54:23;100555.38;;;22.86;48.63
62976;BME280;49071;0.000;0.000;2022-09-09T16:57:25;100553.63;;;22.89;48.73
62976;BME280;49071;0.000;0.000;2022-09-09T17:00:25;100546.69;;;22.90;49.27
62976;BME280;49071;0.000;0.000;2022-09-09T17:03:27;100555.16;;;22.90;49.00
62976;BME280;49071;0.000;0.000;2022-09-09T17:06:28;100551.31;;;22.93;49.38
62976;BME280;49071;0.000;0.000;2022-09-09T17:09:28;100546.97;;;22.92;49.41
62976;BME280;49071;0.000;0.000;2022-09-09T17:12:29;100547.47;;;22.90;49.32
62976;BME280;49071;0.000;0.000;2022-09-09T17:15:29;100541.84;;;22.90;49.10
62976;BME280;49071;0.000;0.000;2022-09-09T17:18:30;100535.44;;;22.90;49.28
62976;BME280;49071;0.000;0.000;2022-09-09T17:21:31;100533.66;;;22.92;49.21
62976;BME280;49071;0.000;0.000;2022-09-09T17:24:31;100532.13;;;22.91;48.81
62976;BME280;49071;0.000;0.000;2022-09-09T17:27:33;100534.94;;;22.91;49.35
62976;BME280;49071;0.000;0.000;2022-09-09T17:30:34;100530.06;;;22.92;49.08
62976;BME280;49071;0.000;0.000;2022-09-09T17:33:35;100517.28;;;22.91;49.21
62976;BME280;49071;0.000;0.000;2022-09-09T17:36:36;100513.19;;;22.92;49.42
62976;BME280;49071;0.000;0.000;2022-09-09T17:39:36;100500.38;;;22.91;49.06
62976;BME280;49071;0.000;0.000;2022-09-09T17:42:37;100493.94;;;22.90;48.90
62976;BME280;49071;0.000;0.000;2022-09-09T17:45:37;100487.34;;;22.93;49.37
62976;BME280;49071;0.000;0.000;2022-09-09T17:48:37;100480.16;;;22.92;49.51
62976;BME280;49071;0.000;0.000;2022-09-09T17:51:38;100498.59;;;22.93;49.25
62976;BME280;49071;0.000;0.000;2022-09-09T17:54:38;100509.06;;;22.93;48.87
62976;BME280;49071;0.000;0.000;2022-09-09T17:57:40;100521.13;;;22.93;48.89
62976;BME280;49071;0.000;0.000;2022-09-09T18:00:41;100535.22;;;22.93;48.99
62976;BME280;49071;0.000;0.000;2022-09-09T18:03:42;100546.47;;;22.93;49.38
62976;BME280;49071;0.000;0.000;2022-09-09T18:06:44;100539.28;;;22.92;49.30
62976;BME280;49071;0.000;0.000;2022-09-09T18:09:45;100535.97;;;22.94;49.56
62976;BME280;49071;0.000;0.000;2022-09-09T18:12:46;100550.84;;;22.94;48.80
62976;BME280;49071;0.000;0.000;2022-09-09T18:15:46;100571.84;;;22.93;49.30
62976;BME280;49071;0.000;0.000;2022-09-09T18:18:47;100582.59;;;22.95;49.23
62976;BME280;49071;0.000;0.000;2022-09-09T18:21:48;100592.31;;;22.94;48.80
62976;BME280;49071;0.000;0.000;2022-09-09T18:24:49;100595.63;;;22.92;48.75
62976;BME280;49071;0.000;0.000;2022-09-09T18:27:49;100607.41;;;22.91;48.80
62976;BME280;49071;0.000;0.000;2022-09-09T18:30:50;100623.50;;;22.90;48.80
62976;BME280;49071;0.000;0.000;2022-09-09T18:33:51;100634.78;;;22.90;49.02
62976;BME280;49071;0.000;0.000;2022-09-09T18:36:52;100644.50;;;22.89;48.88
62976;BME280;49071;0.000;0.000;2022-09-09T18:39:54;100646.84;;;22.91;48.63
62976;BME280;49071;0.000;0.000;2022-09-09T18:42:54;100650.41;;;22.91;48.77
62976;BME280;49071;0.000;0.000;2022-09-09T18:45:54;100654.75;;;22.92;49.14
62976;BME280;49071;0.000;0.000;2022-09-09T18:48:55;100649.13;;;22.92;48.83
62976;BME280;49071;0.000;0.000;2022-09-09T18:51:56;100654.75;;;22.92;48.56
62976;BME280;49071;0.000;0.000;2022-09-09T18:54:56;100661.16;;;22.93;48.64
62976;BME280;49071;0.000;0.000;2022-09-09T18:57:57;100658.34;;;22.93;48.31
62976;BME280;49071;0.000;0.000;2022-09-09T19:00:58;100665.25;;;22.92;48.87
62976;BME280;49071;0.000;0.000;2022-09-09T19:03:58;100661.16;;;22.93;48.70
62976;BME280;49071;0.000;0.000;2022-09-09T19:06:59;100669.63;;;22.93;48.57
62976;BME280;49071;0.000;0.000;2022-09-09T19:09:59;100671.66;;;22.92;48.44
62976;BME280;49071;0.000;0.000;2022-09-09T19:13:01;100674.47;;;22.92;48.61
62976;BME280;49071;0.000;0.000;2022-09-09T19:16:03;100676.81;;;22.94;48.40
62976;BME280;49071;0.000;0.000;2022-09-09T19:19:05;100669.63;;;22.93;48.21
62976;BME280;49071;0.000;0.000;2022-09-09T19:22:05;100676.03;;;22.93;48.32
62976;BME280;49071;0.000;0.000;2022-09-09T19:25:08;100657.59;;;22.92;48.10
62976;BME280;49071;0.000;0.000;2022-09-09T19:28:08;100650.69;;;22.93;48.24
62976;BME280;49071;0.000;0.000;2022-09-09T19:31:08;100640.69;;;22.92;47.94
62976;BME280;49071;0.000;0.000;2022-09-09T19:34:09;100650.69;;;22.93;48.24
62976;BME280;49071;0.000;0.000;2022-09-09T19:37:10;100658.34;;;22.93;47.92
62976;BME280;49071;0.000;0.000;2022-09-09T19:40:10;100645.06;;;22.93;48.12
62976;BME280;49071;0.000;0.000;2022-09-09T19:43:11;100638.63;;;22.93;47.87
62976;BME280;49071;0.000;0.000;2022-09-09T19:46:11;100637.88;;;22.92;47.77
62976;BME280;49071;0.000;0.000;2022-09-09T19:49:13;100637.88;;;22.92;48.18
62976;BME280;49071;0.000;0.000;2022-09-09T19:52:14;100616.63;;;22.91;47.91
62976;BME280;49071;0.000;0.000;2022-09-09T19:55:15;100624.56;;;22.93;47.61
62976;BME280;49071;0.000;0.000;2022-09-09T19:58:16;100612.50;;;22.92;48.09
62976;BME280;49071;0.000;0.000;2022-09-09T20:04:16;100617.38;;;22.92;47.59
62976;BME280;49071;0.000;0.000;2022-09-09T20:07:17;100611.72;;;22.86;48.06
